sensor_id;sensor_type;location;lat;lon;timestamp;pressure;altitude;pressure_sealevel;temperature;humidity
48404;BME280;34202;52.536;6.042;2023-02-01T00:02:45;101875.31;;;4.54;100.00
48404;BME280;34202;52.536;6.042;2023-02-01T00:07:47;101871.17;;;4.54;100.00
48404;BME280;34202;52.536;6.042;2023-02-01T00:12:48;101865.83;;;4.54;100.00
48404;BME280;34202;52.536;6.042;2023-02-01T00:17:53;101861.17;;;4.54;100.00
48404;BME280;34202;52.536;6.042;2023-02-01T00:22:54;101863.86;;;4.56;100.00
48404;BME280;34202;52.536;6.042;2023-02-01T00:27:55;101863.77;;;4.57;100.00
48404;BME280;34202;52.536;6.042;2023-02-01T00:32:56;101864.09;;;4.61;100.00
48404;BME280;34202;52.536;6.042;2023-02-01T00:37:57;101870.21;;;4.62;100.00
48404;BME280;34202;52.536;6.042;2023-02-01T00:42:59;101866.20;;;4.65;100.00
48404;BME280;34202;52.536;6.042;2023-02-01T00:47:59;101875.78;;;4.68;100.00
48404;BME280;34202;52.536;6.042;2023-02-01T00:53:00;101872.43;;;4.70;100.00
48404;BME280;34202;52.536;6.042;2023-02-01T00:58:00;101870.81;;;4.72;100.00
48404;BME280;34202;52.536;6.042;2023-02-01T01:03:00;101866.70;;;4.76;100.00
48404;BME280;34202;52.536;6.042;2023-02-01T01:08:01;101847.82;;;4.78;100.00
48404;BME280;34202;52.536;6.042;2023-02-01T01:13:01;101831.88;;;4.80;100.00
48404;BME280;34202;52.536;6.042;2023-02-01T01:18:02;101828.23;;;4.83;100.00
48404;BME280;34202;52.536;6.042;2023-02-01T01:23:03;101827.56;;;4.88;100.00
48404;BME280;34202;52.536;6.042;2023-02-01T01:28:05;101819.61;;;4.91;100.00
48404;BME280;34202;52.536;6.042;2023-02-01T01:33:05;101814.10;;;4.95;100.00
48404;BME280;34202;52.536;6.042;2023-02-01T01:38:06;101814.44;;;4.99;100.00
48404;BME280;34202;52.536;6.042;2023-02-01T01:43:13;101818.48;;;5.00;100.00
48404;BME280;34202;52.536;6.042;2023-02-01T01:48:35;101821.63;;;5.01;100.00
48404;BME280;34202;52.536;6.042;2023-02-01T01:53:38;101823.89;;;5.06;100.00
48404;BME280;34202;52.536;6.042;2023-02-01T01:58:41;101811.68;;;5.11;100.00
48404;BME280;34202;52.536;6.042;2023-02-01T02:03:43;101800.84;;;5.15;100.00
48404;BME280;34202;52.536;6.042;2023-02-01T02:08:44;101798.77;;;5.19;100.00
48404;BME280;34202;52.536;6.042;2023-02-01T02:13:48;101792.02;;;5.22;100.00
48404;BME280;34202;52.536;6.042;2023-02-01T02:34:54;101752.86;;;5.39;100.00
48404;BME280;34202;52.536;6.042;2023-02-01T02:40:18;101742.86;;;5.44;100.00
48404;BME280;34202;52.536;6.042;2023-02-01T02:45:35;101736.79;;;5.47;100.00
48404;BME280;34202;52.536;6.042;2023-02-01T02:51:13;101719.94;;;5.48;100.00
48404;BME280;34202;52.536;6.042;2023-02-01T02:56:35;101719.48;;;5.50;100.00
48404;BME280;34202;52.536;6.042;2023-02-01T03:01:55;101729.96;;;5.53;100.00
48404;BME280;34202;52.536;6.042;2023-02-01T03:07:49;101722.07;;;5.54;100.00
48404;BME280;34202;52.536;6.042;2023-02-01T03:12:54;101720.77;;;5.56;100.00
48404;BME280;34202;52.536;6.042;2023-02-01T03:17:58;101714.13;;;5.58;100.00
48404;BME280;34202;52.536;6.042;2023-02-01T03:23:02;101718.57;;;5.61;100.00
48404;BME280;34202;52.536;6.042;2023-02-01T03:28:08;101722.02;;;5.66;100.00
48404;BME280;34202;52.536;6.042;2023-02-01T03:33:19;101726.41;;;5.68;100.00
48404;BME280;34202;52.536;6.042;2023-02-01T03:43:27;101715.67;;;5.71;100.00
48404;BME280;34202;52.536;6.042;2023-02-01T03:48:30;101714.08;;;5.74;100.00
48404;BME280;34202;52.536;6.042;2023-02-01T03:53:30;101712.63;;;5.77;100.00
48404;BME280;34202;52.536;6.042;2023-02-01T03:58:31;101709.97;;;5.80;100.00
48404;BME280;34202;52.536;6.042;2023-02-01T04:03:32;101705.59;;;5.83;100.00
48404;BME280;34202;52.536;6.042;2023-02-01T04:08:32;101718.30;;;5.85;100.00
48404;BME280;34202;52.536;6.042;2023-02-01T04:13:33;101722.23;;;5.88;99.93
48404;BME280;34202;52.536;6.042;2023-02-01T04:18:33;101718.36;;;5.91;99.92
48404;BME280;34202;52.536;6.042;2023-02-01T04:23:34;101719.15;;;5.93;99.67
48404;BME280;34202;52.536;6.042;2023-02-01T04:28:36;101715.52;;;5.96;99.74
48404;BME280;34202;52.536;6.042;2023-02-01T04:33:36;101714.07;;;5.99;99.51
48404;BME280;34202;52.536;6.042;2023-02-01T04:38:37;101712.42;;;6.01;99.42
48404;BME280;34202;52.536;6.042;2023-02-01T04:43:37;101710.39;;;6.03;99.41
48404;BME280;34202;52.536;6.042;2023-02-01T04:48:37;101709.50;;;6.02;99.16
48404;BME280;34202;52.536;6.042;2023-02-01T04:53:38;101705.27;;;5.99;99.11
48404;BME280;34202;52.536;6.042;2023-02-01T04:58:38;101711.39;;;5.97;99.07
48404;BME280;34202;52.536;6.042;2023-02-01T05:03:39;101715.04;;;5.98;99.09
48404;BME280;34202;52.536;6.042;2023-02-01T05:08:39;101694.20;;;5.95;98.84
48404;BME280;34202;52.536;6.042;2023-02-01T05:13:39;101689.70;;;5.91;98.89
48404;BME280;34202;52.536;6.042;2023-02-01T05:18:49;101687.70;;;5.89;98.89
48404;BME280;34202;52.536;6.042;2023-02-01T05:23:49;101696.68;;;5.89;99.20
48404;BME280;34202;52.536;6.042;2023-02-01T05:29:09;101697.38;;;5.89;99.23
48404;BME280;34202;52.536;6.042;2023-02-01T05:34:09;101700.27;;;5.88;99.42
48404;BME280;34202;52.536;6.042;2023-02-01T05:39:10;101695.27;;;5.88;99.48
48404;BME280;34202;52.536;6.042;2023-02-01T05:44:11;101694.29;;;5.89;99.33
48404;BME280;34202;52.536;6.042;2023-02-01T05:49:11;101697.78;;;5.90;99.67
48404;BME280;34202;52.536;6.042;2023-02-01T05:54:11;101708.17;;;5.91;99.61
48404;BME280;34202;52.536;6.042;2023-02-01T05:59:12;101702.98;;;5.91;99.64
48404;BME280;34202;52.536;6.042;2023-02-01T06:04:12;101700.08;;;5.91;99.53
48404;BME280;34202;52.536;6.042;2023-02-01T06:09:12;101700.98;;;5.93;99.69
48404;BME280;34202;52.536;6.042;2023-02-01T06:14:13;101708.46;;;5.94;99.82
48404;BME280;34202;52.536;6.042;2023-02-01T06:19:13;101706.48;;;5.95;99.72
48404;BME280;34202;52.536;6.042;2023-02-01T06:24:13;101714.34;;;5.97;99.70
48404;BME280;34202;52.536;6.042;2023-02-01T06:29:14;101715.39;;;5.98;99.65
48404;BME280;34202;52.536;6.042;2023-02-01T06:34:14;101714.21;;;5.98;99.57
48404;BME280;34202;52.536;6.042;2023-02-01T06:39:15;101725.14;;;6.00;99.41
48404;BME280;34202;52.536;6.042;2023-02-01T06:44:16;101726.58;;;6.01;99.33
48404;BME280;34202;52.536;6.042;2023-02-01T06:49:16;101730.63;;;6.03;99.26
48404;BME280;34202;52.536;6.042;2023-02-01T06:54:18;101725.14;;;6.04;99.12
48404;BME280;34202;52.536;6.042;2023-02-01T06:59:18;101726.19;;;6.05;99.07
48404;BME280;34202;52.536;6.042;2023-02-01T07:04:19;101729.64;;;6.05;99.09
48404;BME280;34202;52.536;6.042;2023-02-01T07:09:19;101734.66;;;6.05;99.00
48404;BME280;34202;52.536;6.042;2023-02-01T07:14:19;101740.20;;;6.05;99.03
48404;BME280;34202;52.536;6.042;2023-02-01T07:19:20;101739.85;;;6.05;99.13
48404;BME280;34202;52.536;6.042;2023-02-01T07:24:20;101738.27;;;6.05;99.18
48404;BME280;34202;52.536;6.042;2023-02-01T07:29:20;101738.73;;;6.03;99.09
48404;BME280;34202;52.536;6.042;2023-02-01T07:34:21;101749.40;;;6.01;99.22
48404;BME280;34202;52.536;6.042;2023-02-01T07:39:21;101748.08;;;5.99;99.22
48404;BME280;34202;52.536;6.042;2023-02-01T07:44:21;101750.52;;;5.95;99.20
48404;BME280;34202;52.536;6.042;2023-02-01T07:49:23;101745.50;;;5.91;99.34
48404;BME280;34202;52.536;6.042;2023-02-01T07:54:23;101737.02;;;5.87;99.43
48404;BME280;34202;52.536;6.042;2023-02-01T07:59:24;101745.16;;;5.83;99.36
48404;BME280;34202;52.536;6.042;2023-02-01T08:04:24;101748.13;;;5.79;99.50
48404;BME280;34202;52.536;6.042;2023-02-01T08:09:24;101748.65;;;5.75;99.39
48404;BME280;34202;52.536;6.042;2023-02-01T08:14:25;101749.89;;;5.72;99.44
48404;BME280;34202;52.536;6.042;2023-02-01T08:19:25;101754.02;;;5.71;99.99
48404;BME280;34202;52.536;6.042;2023-02-01T08:24:25;101750.98;;;5.73;100.00
48404;BME280;34202;52.536;6.042;2023-02-01T08:29:26;101752.79;;;5.79;100.00
48404;BME280;34202;52.536;6.042;2023-02-01T08:34:26;101741.63;;;5.85;100.00
48404;BME280;34202;52.536;6.042;2023-02-01T08:39:26;101745.86;;;5.87;100.00
48404;BME280;34202;52.536;6.042;2023-02-01T08:44:27;101744.07;;;5.90;100.00
48404;BME280;34202;52.536;6.042;2023-02-01T08:49:27;101735.23;;;5.93;100.00
48404;BME280;34202;52.536;6.042;2023-02-01T08:54:27;101728.15;;;5.97;100.00
48404;BME280;34202;52.536;6.042;2023-02-01T08:59:27;101724.85;;;6.01;100.00
48404;BME280;34202;52.536;6.042;2023-02-01T09:04:28;101717.41;;;6.05;100.00
48404;BME280;34202;52.536;6.042;2023-02-01T09:09:28;101719.42;;;6.08;100.00
48404;BME280;34202;52.536;6.042;2023-02-01T09:14:29;101717.29;;;6.11;100.00
48404;BME280;34202;52.536;6.042;2023-02-01T09:19:29;101708.70;;;6.12;100.00
48404;BME280;34202;52.536;6.042;2023-02-01T09:24:30;101713.23;;;6.14;100.00
48404;BME280;34202;52.536;6.042;2023-02-01T09:29:30;101714.35;;;6.16;100.00
48404;BME280;34202;52.536;6.042;2023-02-01T09:34:30;101709.45;;;6.18;100.00
48404;BME280;34202;52.536;6.042;2023-02-01T09:39:31;101707.49;;;6.22;100.00
48404;BME280;34202;52.536;6.042;2023-02-01T09:44:48;101690.46;;;6.24;100.00
48404;BME280;34202;52.536;6.042;2023-02-01T09:50:12;101674.66;;;6.27;100.00
48404;BME280;34202;52.536;6.042;2023-02-01T09:55:22;101678.61;;;6.30;100.00
48404;BME280;34202;52.536;6.042;2023-02-01T10:00:29;101676.70;;;6.30;100.00
48404;BME280;34202;52.536;6.042;2023-02-01T10:05:59;101683.87;;;6.28;100.00
48404;BME280;34202;52.536;6.042;2023-02-01T10:11:25;101681.24;;;6.22;100.00
48404;BME280;34202;52.536;6.042;2023-02-01T10:16:46;101666.83;;;6.16;100.00
48404;BME280;34202;52.536;6.042;2023-02-01T10:22:03;101669.99;;;6.13;100.00
48404;BME280;34202;52.536;6.042;2023-02-01T10:32:26;101691.16;;;6.06;100.00
48404;BME280;34202;52.536;6.042;2023-02-01T10:37:32;101693.52;;;6.04;100.00
48404;BME280;34202;52.536;6.042;2023-02-01T10:42:32;101699.80;;;6.01;100.00
48404;BME280;34202;52.536;6.042;2023-02-01T10:47:33;101685.57;;;6.00;100.00
48404;BME280;34202;52.536;6.042;2023-02-01T10:52:39;101681.61;;;6.00;100.00
48404;BME280;34202;52.536;6.042;2023-02-01T10:57:41;101679.51;;;5.99;100.00
48404;BME280;34202;52.536;6.042;2023-02-01T11:02:41;101675.86;;;5.99;100.00
48404;BME280;34202;52.536;6.042;2023-02-01T11:07:50;101670.89;;;6.00;100.00
48404;BME280;34202;52.536;6.042;2023-02-01T11:12:55;101660.23;;;6.01;100.00
48404;BME280;34202;52.536;6.042;2023-02-01T11:17:56;101640.23;;;6.03;100.00
48404;BME280;34202;52.536;6.042;2023-02-01T11:23:15;101639.27;;;6.05;100.00
48404;BME280;34202;52.536;6.042;2023-02-01T11:28:16;101646.59;;;6.06;100.00
48404;BME280;34202;52.536;6.042;2023-02-01T11:33:19;101641.83;;;6.09;100.00
48404;BME280;34202;52.536;6.042;2023-02-01T11:38:30;101630.92;;;6.13;100.00
48404;BME280;34202;52.536;6.042;2023-02-01T11:43:30;101626.70;;;6.19;100.00
48404;BME280;34202;52.536;6.042;2023-02-01T11:48:32;101627.11;;;6.26;100.00
48404;BME280;34202;52.536;6.042;2023-02-01T12:15:41;101624.79;;;6.53;100.00
48404;BME280;34202;52.536;6.042;2023-02-01T12:21:04;101612.23;;;6.54;100.00
48404;BME280;34202;52.536;6.042;2023-02-01T12:31:52;101616.33;;;6.58;100.00
48404;BME280;34202;52.536;6.042;2023-02-01T12:42:40;101614.81;;;6.59;100.00
48404;BME280;34202;52.536;6.042;2023-02-01T12:47:49;101619.65;;;6.59;100.00
48404;BME280;34202;52.536;6.042;2023-02-01T12:53:06;101608.64;;;6.61;100.00
48404;BME280;34202;52.536;6.042;2023-02-01T13:03:34;101622.33;;;6.71;100.00
48404;BME280;34202;52.536;6.042;2023-02-01T13:08:54;101617.93;;;6.74;100.00
48404;BME280;34202;52.536;6.042;2023-02-01T13:19:17;101627.66;;;6.81;100.00
48404;BME280;34202;52.536;6.042;2023-02-01T13:29:25;101639.04;;;6.94;100.00
48404;BME280;34202;52.536;6.042;2023-02-01T13:34:34;101646.25;;;6.98;100.00
48404;BME280;34202;52.536;6.042;2023-02-01T13:39:47;101646.73;;;7.02;100.00
48404;BME280;34202;52.536;6.042;2023-02-01T13:45:03;101649.34;;;7.02;100.00
48404;BME280;34202;52.536;6.042;2023-02-01T13:50:18;101648.56;;;7.05;100.00
48404;BME280;34202;52.536;6.042;2023-02-01T14:10:56;101655.88;;;7.11;100.00
48404;BME280;34202;52.536;6.042;2023-02-01T14:21:27;101666.22;;;7.20;100.00
48404;BME280;34202;52.536;6.042;2023-02-01T14:31:48;101667.48;;;7.27;100.00
48404;BME280;34202;52.536;6.042;2023-02-01T14:36:56;101675.48;;;7.28;100.00
48404;BME280;34202;52.536;6.042;2023-02-01T14:42:37;101677.58;;;7.28;100.00
48404;BME280;34202;52.536;6.042;2023-02-01T14:47:39;101688.77;;;7.32;100.00
48404;BME280;34202;52.536;6.042;2023-02-01T14:52:43;101692.64;;;7.33;100.00
48404;BME280;34202;52.536;6.042;2023-02-01T14:57:46;101696.11;;;7.33;100.00
48404;BME280;34202;52.536;6.042;2023-02-01T15:02:49;101700.10;;;7.34;100.00
48404;BME280;34202;52.536;6.042;2023-02-01T15:07:51;101698.16;;;7.32;100.00
48404;BME280;34202;52.536;6.042;2023-02-01T15:12:52;101694.28;;;7.31;100.00
48404;BME280;34202;52.536;6.042;2023-02-01T15:17:58;101703.24;;;7.30;100.00
48404;BME280;34202;52.536;6.042;2023-02-01T15:23:02;101703.23;;;7.29;100.00
48404;BME280;34202;52.536;6.042;2023-02-01T15:28:03;101719.11;;;7.28;100.00
48404;BME280;34202;52.536;6.042;2023-02-01T15:33:13;101722.86;;;7.26;100.00
48404;BME280;34202;52.536;6.042;2023-02-01T15:38:29;101719.97;;;7.23;100.00
48404;BME280;34202;52.536;6.042;2023-02-01T15:43:43;101724.14;;;7.18;100.00
48404;BME280;34202;52.536;6.042;2023-02-01T15:48:52;101739.56;;;7.13;100.00
48404;BME280;34202;52.536;6.042;2023-02-01T15:53:57;101738.23;;;7.10;100.00
48404;BME280;34202;52.536;6.042;2023-02-01T15:59:00;101737.31;;;7.08;100.00
48404;BME280;34202;52.536;6.042;2023-02-01T16:04:10;101741.08;;;7.07;100.00
48404;BME280;34202;52.536;6.042;2023-02-01T16:09:15;101744.38;;;7.02;100.00
48404;BME280;34202;52.536;6.042;2023-02-01T16:14:16;101750.73;;;6.96;100.00
48404;BME280;34202;52.536;6.042;2023-02-01T16:19:17;101756.05;;;6.90;100.00
48404;BME280;34202;52.536;6.042;2023-02-01T16:24:17;101761.39;;;6.85;100.00
48404;BME280;34202;52.536;6.042;2023-02-01T16:29:18;101757.77;;;6.80;100.00
48404;BME280;34202;52.536;6.042;2023-02-01T16:34:18;101760.64;;;6.79;100.00
48404;BME280;34202;52.536;6.042;2023-02-01T16:39:19;101764.04;;;6.76;100.00
48404;BME280;34202;52.536;6.042;2023-02-01T16:44:20;101781.51;;;6.77;100.00
48404;BME280;34202;52.536;6.042;2023-02-01T16:49:22;101791.38;;;6.77;100.00
48404;BME280;34202;52.536;6.042;2023-02-01T16:54:23;101797.27;;;6.77;100.00
48404;BME280;34202;52.536;6.042;2023-02-01T16:59:24;101798.42;;;6.76;100.00
48404;BME280;34202;52.536;6.042;2023-02-01T17:04:24;101788.16;;;6.74;100.00
48404;BME280;34202;52.536;6.042;2023-02-01T17:09:24;101796.15;;;6.70;100.00
48404;BME280;34202;52.536;6.042;2023-02-01T17:14:25;101799.81;;;6.67;100.00
48404;BME280;34202;52.536;6.042;2023-02-01T17:19:25;101798.12;;;6.63;100.00
48404;BME280;34202;52.536;6.042;2023-02-01T17:24:28;101818.46;;;6.61;100.00
48404;BME280;34202;52.536;6.042;2023-02-01T17:29:29;101824.48;;;6.65;100.00
48404;BME280;34202;52.536;6.042;2023-02-01T17:34:30;101856.12;;;6.64;100.00
48404;BME280;34202;52.536;6.042;2023-02-01T17:39:30;101839.15;;;6.55;100.00
48404;BME280;34202;52.536;6.042;2023-02-01T17:44:51;101843.22;;;6.39;100.00
48404;BME280;34202;52.536;6.042;2023-02-01T17:49:54;101855.41;;;6.29;100.00
48404;BME280;34202;52.536;6.042;2023-02-01T17:54:55;101863.60;;;6.22;100.00
48404;BME280;34202;52.536;6.042;2023-02-01T17:59:56;101858.41;;;6.17;100.00
48404;BME280;34202;52.536;6.042;2023-02-01T18:04:56;101865.58;;;6.15;100.00
48404;BME280;34202;52.536;6.042;2023-02-01T18:09:57;101864.06;;;6.12;100.00
48404;BME280;34202;52.536;6.042;2023-02-01T18:14:58;101868.37;;;6.08;100.00
48404;BME280;34202;52.536;6.042;2023-02-01T18:19:58;101861.98;;;6.04;100.00
48404;BME280;34202;52.536;6.042;2023-02-01T18:24:58;101866.96;;;5.98;100.00
48404;BME280;34202;52.536;6.042;2023-02-01T18:29:59;101869.53;;;5.94;100.00
48404;BME280;34202;52.536;6.042;2023-02-01T18:34:59;101869.30;;;5.89;100.00
48404;BME280;34202;52.536;6.042;2023-02-01T18:39:59;101874.00;;;5.86;100.00
48404;BME280;34202;52.536;6.042;2023-02-01T18:45:00;101873.42;;;5.85;100.00
48404;BME280;34202;52.536;6.042;2023-02-01T18:50:01;101874.96;;;5.84;100.00
48404;BME280;34202;52.536;6.042;2023-02-01T18:55:01;101880.48;;;5.84;100.00
48404;BME280;34202;52.536;6.042;2023-02-01T19:00:03;101881.88;;;5.85;100.00
48404;BME280;34202;52.536;6.042;2023-02-01T19:05:06;101880.36;;;5.85;100.00
48404;BME280;34202;52.536;6.042;2023-02-01T19:10:09;101883.52;;;5.86;100.00
48404;BME280;34202;52.536;6.042;2023-02-01T19:15:12;101886.42;;;5.85;100.00
48404;BME280;34202;52.536;6.042;2023-02-01T19:20:19;101882.20;;;5.84;100.00
48404;BME280;34202;52.536;6.042;2023-02-01T19:25:23;101881.77;;;5.82;100.00
48404;BME280;34202;52.536;6.042;2023-02-01T19:30:24;101872.55;;;5.80;100.00
48404;BME280;34202;52.536;6.042;2023-02-01T19:35:24;101870.48;;;5.80;100.00
48404;BME280;34202;52.536;6.042;2023-02-01T19:40:25;101867.70;;;5.80;100.00
48404;BME280;34202;52.536;6.042;2023-02-01T19:45:26;101873.35;;;5.79;100.00
48404;BME280;34202;52.536;6.042;2023-02-01T19:50:26;101876.28;;;5.79;100.00
48404;BME280;34202;52.536;6.042;2023-02-01T19:55:26;101880.64;;;5.79;100.00
48404;BME280;34202;52.536;6.042;2023-02-01T20:00:27;101881.13;;;5.79;100.00
48404;BME280;34202;52.536;6.042;2023-02-01T20:05:27;101883.04;;;5.79;100.00
48404;BME280;34202;52.536;6.042;2023-02-01T20:10:28;101886.35;;;5.79;100.00
48404;BME280;34202;52.536;6.042;2023-02-01T20:15:28;101891.32;;;5.83;100.00
48404;BME280;34202;52.536;6.042;2023-02-01T20:20:29;101889.05;;;5.86;100.00
48404;BME280;34202;52.536;6.042;2023-02-01T20:25:29;101894.67;;;5.89;100.00
48404;BME280;34202;52.536;6.042;2023-02-01T20:30:30;101895.58;;;5.90;100.00
48404;BME280;34202;52.536;6.042;2023-02-01T20:35:31;101896.43;;;5.89;100.00
48404;BME280;34202;52.536;6.042;2023-02-01T20:40:32;101891.67;;;5.87;100.00
48404;BME280;34202;52.536;6.042;2023-02-01T20:45:32;101895.86;;;5.84;100.00
48404;BME280;34202;52.536;6.042;2023-02-01T20:50:33;101900.16;;;5.83;100.00
48404;BME280;34202;52.536;6.042;2023-02-01T20:55:34;101903.80;;;5.84;100.00
48404;BME280;34202;52.536;6.042;2023-02-01T21:00:35;101909.36;;;5.85;100.00
48404;BME280;34202;52.536;6.042;2023-02-01T21:05:35;101915.99;;;5.86;100.00
48404;BME280;34202;52.536;6.042;2023-02-01T21:10:41;101917.16;;;5.85;100.00
48404;BME280;34202;52.536;6.042;2023-02-01T21:15:42;101919.55;;;5.84;100.00
48404;BME280;34202;52.536;6.042;2023-02-01T21:20:43;101918.48;;;5.84;100.00
48404;BME280;34202;52.536;6.042;2023-02-01T21:25:46;101914.40;;;5.85;100.00
48404;BME280;34202;52.536;6.042;2023-02-01T21:30:46;101921.59;;;5.88;100.00
48404;BME280;34202;52.536;6.042;2023-02-01T21:35:49;101927.02;;;5.89;100.00
48404;BME280;34202;52.536;6.042;2023-02-01T21:40:51;101934.67;;;5.91;100.00
48404;BME280;34202;52.536;6.042;2023-02-01T21:46:11;101946.19;;;5.93;100.00
48404;BME280;34202;52.536;6.042;2023-02-01T21:51:11;101949.70;;;5.95;100.00
48404;BME280;34202;52.536;6.042;2023-02-01T21:56:15;101953.20;;;5.95;100.00
48404;BME280;34202;52.536;6.042;2023-02-01T22:01:15;101951.89;;;5.96;100.00
48404;BME280;34202;52.536;6.042;2023-02-01T22:06:30;101962.11;;;5.97;100.00
48404;BME280;34202;52.536;6.042;2023-02-01T22:11:31;101968.69;;;5.97;100.00
48404;BME280;34202;52.536;6.042;2023-02-01T22:16:31;101982.09;;;5.96;100.00
48404;BME280;34202;52.536;6.042;2023-02-01T22:21:32;101973.98;;;5.96;100.00
48404;BME280;34202;52.536;6.042;2023-02-01T22:26:32;101979.98;;;5.95;100.00
48404;BME280;34202;52.536;6.042;2023-02-01T22:31:32;101994.86;;;5.92;100.00
48404;BME280;34202;52.536;6.042;2023-02-01T22:36:33;101997.25;;;5.91;100.00
48404;BME280;34202;52.536;6.042;2023-02-01T22:41:33;102004.25;;;5.90;100.00
48404;BME280;34202;52.536;6.042;2023-02-01T22:46:33;102007.90;;;5.90;100.00
48404;BME280;34202;52.536;6.042;2023-02-01T22:51:34;102011.75;;;5.91;100.00
48404;BME280;34202;52.536;6.042;2023-02-01T22:56:36;102017.98;;;5.88;100.00
48404;BME280;34202;52.536;6.042;2023-02-01T23:01:36;102019.23;;;5.81;100.00
48404;BME280;34202;52.536;6.042;2023-02-01T23:06:37;102017.68;;;5.73;100.00
48404;BME280;34202;52.536;6.042;2023-02-01T23:11:38;102019.36;;;5.68;100.00
48404;BME280;34202;52.536;6.042;2023-02-01T23:16:38;102021.35;;;5.62;100.00
48404;BME280;34202;52.536;6.042;2023-02-01T23:21:40;102028.05;;;5.58;100.00
48404;BME280;34202;52.536;6.042;2023-02-01T23:26:40;102020.20;;;5.53;100.00
48404;BME280;34202;52.536;6.042;2023-02-01T23:31:41;102025.27;;;5.50;100.00
48404;BME280;34202;52.536;6.042;2023-02-01T23:36:41;102022.59;;;5.48;100.00
48404;BME280;34202;52.536;6.042;2023-02-01T23:41:42;102028.40;;;5.47;100.00
48404;BME280;34202;52.536;6.042;2023-02-01T23:46:42;102030.59;;;5.45;100.00
48404;BME280;34202;52.536;6.042;2023-02-01T23:51:46;102032.93;;;5.44;100.00
48404;BME280;34202;52.536;6.042;2023-02-01T23:56:49;102039.41;;;5.42;100.00
